East Oolitic, Indiana
Current Conditions -  °F | °C
As of 2:53 AM on Sunday 21 Dec 2014 (Local Time) from KBMG Reporting Station
Haze Haze  
Wind Chill: 21°   Ceiling: Unl
Heat Index: 21°   Visibility: 5mi
Dew Point: 20°   Wind: 0mph
Humidity: 96%   Direction: NA
Pressure: 30.29"   Gusts: NA
Location:  38.8737°N, 86.4563°W
Report Text: KBMG 210753Z 00000KT 5SM BR CLR M06/M07 A3029 RMK AO2 SLP266 I1000 T10611067
Loading
Personal Weather Stations






























Interactive Weather Map New forecast layout! Learn more

10-Day Weather Forecast

Advertisements
Track Severe Weather on mobile